sensor_id;sensor_type;location;lat;lon;timestamp;pressure;altitude;pressure_sealevel;temperature;humidity
56196;BME280;42108;49.076;19.294;2022-07-06T00:01:36;62029.09;;;-146.16;100.00
56196;BME280;42108;49.076;19.294;2022-07-06T00:03:38;62029.09;;;-146.16;100.00
56196;BME280;42108;49.076;19.294;2022-07-06T00:05:39;62029.09;;;-146.16;100.00
56196;BME280;42108;49.076;19.294;2022-07-06T00:07:40;62029.09;;;-146.16;100.00
56196;BME280;42108;49.076;19.294;2022-07-06T00:09:41;62029.09;;;-146.16;100.00
56196;BME280;42108;49.076;19.294;2022-07-06T00:11:42;62029.09;;;-146.16;100.00
56196;BME280;42108;49.076;19.294;2022-07-06T00:13:43;62029.09;;;-146.16;100.00
56196;BME280;42108;49.076;19.294;2022-07-06T00:15:45;62029.09;;;-146.16;100.00
56196;BME280;42108;49.076;19.294;2022-07-06T00:17:46;62029.09;;;-146.16;100.00
56196;BME280;42108;49.076;19.294;2022-07-06T00:19:47;62029.09;;;-146.16;100.00
56196;BME280;42108;49.076;19.294;2022-07-06T00:21:48;62029.09;;;-146.16;100.00
56196;BME280;42108;49.076;19.294;2022-07-06T00:23:49;62029.09;;;-146.16;100.00
56196;BME280;42108;49.076;19.294;2022-07-06T00:25:52;62029.09;;;-146.16;100.00
56196;BME280;42108;49.076;19.294;2022-07-06T00:27:54;62029.09;;;-146.16;100.00
56196;BME280;42108;49.076;19.294;2022-07-06T00:29:55;62029.09;;;-146.16;100.00
56196;BME280;42108;49.076;19.294;2022-07-06T00:31:57;62029.09;;;-146.16;100.00
56196;BME280;42108;49.076;19.294;2022-07-06T00:33:58;62029.09;;;-146.16;100.00
56196;BME280;42108;49.076;19.294;2022-07-06T00:35:59;62029.09;;;-146.16;100.00
56196;BME280;42108;49.076;19.294;2022-07-06T00:38:01;62029.09;;;-146.16;100.00
56196;BME280;42108;49.076;19.294;2022-07-06T00:40:02;62029.09;;;-146.16;100.00
56196;BME280;42108;49.076;19.294;2022-07-06T00:42:03;62029.09;;;-146.16;100.00
56196;BME280;42108;49.076;19.294;2022-07-06T00:44:07;62029.09;;;-146.16;100.00
56196;BME280;42108;49.076;19.294;2022-07-06T00:46:10;62029.09;;;-146.16;100.00
56196;BME280;42108;49.076;19.294;2022-07-06T00:48:11;62029.09;;;-146.16;100.00
56196;BME280;42108;49.076;19.294;2022-07-06T00:50:15;62029.09;;;-146.16;100.00
56196;BME280;42108;49.076;19.294;2022-07-06T00:52:23;62029.09;;;-146.16;100.00
56196;BME280;42108;49.076;19.294;2022-07-06T00:54:26;62029.09;;;-146.16;100.00
56196;BME280;42108;49.076;19.294;2022-07-06T00:56:29;62029.09;;;-146.16;100.00
56196;BME280;42108;49.076;19.294;2022-07-06T00:58:30;62029.09;;;-146.16;100.00
56196;BME280;42108;49.076;19.294;2022-07-06T01:00:32;62029.09;;;-146.16;100.00
56196;BME280;42108;49.076;19.294;2022-07-06T01:02:34;62029.09;;;-146.16;100.00
56196;BME280;42108;49.076;19.294;2022-07-06T01:04:36;62029.09;;;-146.16;100.00
56196;BME280;42108;49.076;19.294;2022-07-06T01:06:38;62029.09;;;-146.16;100.00
56196;BME280;42108;49.076;19.294;2022-07-06T01:08:39;62029.09;;;-146.16;100.00
56196;BME280;42108;49.076;19.294;2022-07-06T01:10:40;62029.09;;;-146.16;100.00
56196;BME280;42108;49.076;19.294;2022-07-06T01:12:43;62029.09;;;-146.16;100.00
56196;BME280;42108;49.076;19.294;2022-07-06T01:14:44;62029.09;;;-146.16;100.00
56196;BME280;42108;49.076;19.294;2022-07-06T01:16:45;62029.09;;;-146.16;100.00
56196;BME280;42108;49.076;19.294;2022-07-06T01:18:47;62029.09;;;-146.16;100.00
56196;BME280;42108;49.076;19.294;2022-07-06T01:20:48;62029.09;;;-146.16;100.00
56196;BME280;42108;49.076;19.294;2022-07-06T01:22:50;62029.09;;;-146.16;100.00
56196;BME280;42108;49.076;19.294;2022-07-06T01:24:52;62029.09;;;-146.16;100.00
56196;BME280;42108;49.076;19.294;2022-07-06T01:26:53;62029.09;;;-146.16;100.00
56196;BME280;42108;49.076;19.294;2022-07-06T01:28:54;62029.09;;;-146.16;100.00
56196;BME280;42108;49.076;19.294;2022-07-06T01:30:55;62029.09;;;-146.16;100.00
56196;BME280;42108;49.076;19.294;2022-07-06T01:32:56;62029.09;;;-146.16;100.00
56196;BME280;42108;49.076;19.294;2022-07-06T01:34:59;62029.09;;;-146.16;100.00
56196;BME280;42108;49.076;19.294;2022-07-06T01:37:01;62029.09;;;-146.16;100.00
56196;BME280;42108;49.076;19.294;2022-07-06T01:39:02;62029.09;;;-146.16;100.00
56196;BME280;42108;49.076;19.294;2022-07-06T01:41:06;62029.09;;;-146.16;100.00
56196;BME280;42108;49.076;19.294;2022-07-06T01:43:07;62029.09;;;-146.16;100.00
56196;BME280;42108;49.076;19.294;2022-07-06T01:45:09;62029.09;;;-146.16;100.00
56196;BME280;42108;49.076;19.294;2022-07-06T01:47:11;62029.09;;;-146.16;100.00
56196;BME280;42108;49.076;19.294;2022-07-06T01:49:12;62029.09;;;-146.16;100.00
56196;BME280;42108;49.076;19.294;2022-07-06T01:51:14;62029.09;;;-146.16;100.00
56196;BME280;42108;49.076;19.294;2022-07-06T01:53:15;62029.09;;;-146.16;100.00
56196;BME280;42108;49.076;19.294;2022-07-06T01:55:16;62029.09;;;-146.16;100.00
56196;BME280;42108;49.076;19.294;2022-07-06T01:57:17;62029.09;;;-146.16;100.00
56196;BME280;42108;49.076;19.294;2022-07-06T01:59:19;62029.09;;;-146.16;100.00
56196;BME280;42108;49.076;19.294;2022-07-06T02:01:20;62029.09;;;-146.16;100.00
56196;BME280;42108;49.076;19.294;2022-07-06T02:03:23;62029.09;;;-146.16;100.00
56196;BME280;42108;49.076;19.294;2022-07-06T02:05:25;62029.09;;;-146.16;100.00
56196;BME280;42108;49.076;19.294;2022-07-06T02:07:27;62029.09;;;-146.16;100.00
56196;BME280;42108;49.076;19.294;2022-07-06T02:09:29;62029.09;;;-146.16;100.00
56196;BME280;42108;49.076;19.294;2022-07-06T02:11:30;62029.09;;;-146.16;100.00
56196;BME280;42108;49.076;19.294;2022-07-06T02:13:31;62029.09;;;-146.16;100.00
56196;BME280;42108;49.076;19.294;2022-07-06T02:15:34;62029.09;;;-146.16;100.00
56196;BME280;42108;49.076;19.294;2022-07-06T02:17:35;62029.09;;;-146.16;100.00
56196;BME280;42108;49.076;19.294;2022-07-06T02:19:36;62029.09;;;-146.16;100.00
56196;BME280;42108;49.076;19.294;2022-07-06T02:21:37;62029.09;;;-146.16;100.00
56196;BME280;42108;49.076;19.294;2022-07-06T02:23:38;62029.09;;;-146.16;100.00
56196;BME280;42108;49.076;19.294;2022-07-06T02:25:40;62029.09;;;-146.16;100.00
56196;BME280;42108;49.076;19.294;2022-07-06T02:27:41;62029.09;;;-146.16;100.00
56196;BME280;42108;49.076;19.294;2022-07-06T02:29:42;62029.09;;;-146.16;100.00
56196;BME280;42108;49.076;19.294;2022-07-06T02:31:43;62029.09;;;-146.16;100.00
56196;BME280;42108;49.076;19.294;2022-07-06T02:33:44;62029.09;;;-146.16;100.00
56196;BME280;42108;49.076;19.294;2022-07-06T02:35:45;62029.09;;;-146.16;100.00
56196;BME280;42108;49.076;19.294;2022-07-06T02:37:46;62029.09;;;-146.16;100.00
56196;BME280;42108;49.076;19.294;2022-07-06T02:39:47;62029.09;;;-146.16;100.00
56196;BME280;42108;49.076;19.294;2022-07-06T02:41:48;62029.09;;;-146.16;100.00
56196;BME280;42108;49.076;19.294;2022-07-06T02:43:49;62029.09;;;-146.16;100.00
56196;BME280;42108;49.076;19.294;2022-07-06T02:45:50;62029.09;;;-146.16;100.00
56196;BME280;42108;49.076;19.294;2022-07-06T02:47:53;62029.09;;;-146.16;100.00
56196;BME280;42108;49.076;19.294;2022-07-06T02:49:56;62029.09;;;-146.16;100.00
56196;BME280;42108;49.076;19.294;2022-07-06T02:51:58;62029.09;;;-146.16;100.00
56196;BME280;42108;49.076;19.294;2022-07-06T02:53:59;62029.09;;;-146.16;100.00
56196;BME280;42108;49.076;19.294;2022-07-06T02:56:00;62029.09;;;-146.16;100.00
56196;BME280;42108;49.076;19.294;2022-07-06T02:58:01;62029.09;;;-146.16;100.00
56196;BME280;42108;49.076;19.294;2022-07-06T03:00:03;62029.09;;;-146.16;100.00
56196;BME280;42108;49.076;19.294;2022-07-06T03:02:05;62029.09;;;-146.16;100.00
56196;BME280;42108;49.076;19.294;2022-07-06T03:04:06;62029.09;;;-146.16;100.00
56196;BME280;42108;49.076;19.294;2022-07-06T03:06:07;62029.09;;;-146.16;100.00
56196;BME280;42108;49.076;19.294;2022-07-06T03:08:08;62029.09;;;-146.16;100.00
56196;BME280;42108;49.076;19.294;2022-07-06T03:10:09;62029.09;;;-146.16;100.00
56196;BME280;42108;49.076;19.294;2022-07-06T03:12:13;62029.09;;;-146.16;100.00
56196;BME280;42108;49.076;19.294;2022-07-06T03:14:14;62029.09;;;-146.16;100.00
56196;BME280;42108;49.076;19.294;2022-07-06T03:16:15;62029.09;;;-146.16;100.00
56196;BME280;42108;49.076;19.294;2022-07-06T03:18:16;62029.09;;;-146.16;100.00
56196;BME280;42108;49.076;19.294;2022-07-06T03:20:17;62029.09;;;-146.16;100.00
56196;BME280;42108;49.076;19.294;2022-07-06T03:22:18;62029.09;;;-146.16;100.00
56196;BME280;42108;49.076;19.294;2022-07-06T03:24:19;62029.09;;;-146.16;100.00
56196;BME280;42108;49.076;19.294;2022-07-06T03:26:20;62029.09;;;-146.16;100.00
56196;BME280;42108;49.076;19.294;2022-07-06T03:28:21;62029.09;;;-146.16;100.00
56196;BME280;42108;49.076;19.294;2022-07-06T03:30:23;62029.09;;;-146.16;100.00
56196;BME280;42108;49.076;19.294;2022-07-06T03:32:25;62029.09;;;-146.16;100.00
56196;BME280;42108;49.076;19.294;2022-07-06T03:34:26;62029.09;;;-146.16;100.00
56196;BME280;42108;49.076;19.294;2022-07-06T03:36:27;62029.09;;;-146.16;100.00
56196;BME280;42108;49.076;19.294;2022-07-06T03:38:28;62029.09;;;-146.16;100.00
56196;BME280;42108;49.076;19.294;2022-07-06T03:40:29;62029.09;;;-146.16;100.00
56196;BME280;42108;49.076;19.294;2022-07-06T03:42:30;62029.09;;;-146.16;100.00
56196;BME280;42108;49.076;19.294;2022-07-06T03:44:31;62029.09;;;-146.16;100.00
56196;BME280;42108;49.076;19.294;2022-07-06T03:46:32;62029.09;;;-146.16;100.00
56196;BME280;42108;49.076;19.294;2022-07-06T03:48:33;62029.09;;;-146.16;100.00
56196;BME280;42108;49.076;19.294;2022-07-06T03:50:34;62029.09;;;-146.16;100.00
56196;BME280;42108;49.076;19.294;2022-07-06T03:52:36;62029.09;;;-146.16;100.00
56196;BME280;42108;49.076;19.294;2022-07-06T03:54:40;62029.09;;;-146.16;100.00
56196;BME280;42108;49.076;19.294;2022-07-06T03:56:41;62029.09;;;-146.16;100.00
56196;BME280;42108;49.076;19.294;2022-07-06T03:58:42;62029.09;;;-146.16;100.00
56196;BME280;42108;49.076;19.294;2022-07-06T04:00:43;62029.09;;;-146.16;100.00
56196;BME280;42108;49.076;19.294;2022-07-06T04:02:45;62029.09;;;-146.16;100.00
56196;BME280;42108;49.076;19.294;2022-07-06T04:04:47;62029.09;;;-146.16;100.00
56196;BME280;42108;49.076;19.294;2022-07-06T04:06:48;62029.09;;;-146.16;100.00
56196;BME280;42108;49.076;19.294;2022-07-06T04:08:50;62029.09;;;-146.16;100.00
56196;BME280;42108;49.076;19.294;2022-07-06T04:10:51;62029.09;;;-146.16;100.00
56196;BME280;42108;49.076;19.294;2022-07-06T04:12:52;62029.09;;;-146.16;100.00
56196;BME280;42108;49.076;19.294;2022-07-06T04:14:56;62029.09;;;-146.16;100.00
56196;BME280;42108;49.076;19.294;2022-07-06T04:16:57;62029.09;;;-146.16;100.00
56196;BME280;42108;49.076;19.294;2022-07-06T04:18:58;62029.09;;;-146.16;100.00
56196;BME280;42108;49.076;19.294;2022-07-06T04:20:59;62029.09;;;-146.16;100.00
56196;BME280;42108;49.076;19.294;2022-07-06T04:23:00;62029.09;;;-146.16;100.00
56196;BME280;42108;49.076;19.294;2022-07-06T04:25:01;62029.09;;;-146.16;100.00
56196;BME280;42108;49.076;19.294;2022-07-06T04:27:03;62029.09;;;-146.16;100.00
56196;BME280;42108;49.076;19.294;2022-07-06T04:29:04;62029.09;;;-146.16;100.00
56196;BME280;42108;49.076;19.294;2022-07-06T04:31:05;62029.09;;;-146.16;100.00
56196;BME280;42108;49.076;19.294;2022-07-06T04:33:06;62029.09;;;-146.16;100.00
56196;BME280;42108;49.076;19.294;2022-07-06T04:35:07;62029.09;;;-146.16;100.00
56196;BME280;42108;49.076;19.294;2022-07-06T04:37:10;62029.09;;;-146.16;100.00
56196;BME280;42108;49.076;19.294;2022-07-06T04:39:11;62029.09;;;-146.16;100.00
56196;BME280;42108;49.076;19.294;2022-07-06T04:41:13;62029.09;;;-146.16;100.00
56196;BME280;42108;49.076;19.294;2022-07-06T04:43:14;62029.09;;;-146.16;100.00
56196;BME280;42108;49.076;19.294;2022-07-06T04:45:15;62029.09;;;-146.16;100.00
56196;BME280;42108;49.076;19.294;2022-07-06T04:47:16;62029.09;;;-146.16;100.00
56196;BME280;42108;49.076;19.294;2022-07-06T04:49:17;62029.09;;;-146.16;100.00
56196;BME280;42108;49.076;19.294;2022-07-06T04:51:18;62029.09;;;-146.16;100.00
56196;BME280;42108;49.076;19.294;2022-07-06T04:53:19;62029.09;;;-146.16;100.00
56196;BME280;42108;49.076;19.294;2022-07-06T04:55:20;62029.09;;;-146.16;100.00
56196;BME280;42108;49.076;19.294;2022-07-06T04:57:21;62029.09;;;-146.16;100.00
56196;BME280;42108;49.076;19.294;2022-07-06T04:59:22;62029.09;;;-146.16;100.00
56196;BME280;42108;49.076;19.294;2022-07-06T05:01:23;62029.09;;;-146.16;100.00
56196;BME280;42108;49.076;19.294;2022-07-06T05:03:24;62029.09;;;-146.16;100.00
56196;BME280;42108;49.076;19.294;2022-07-06T05:05:26;62029.09;;;-146.16;100.00
56196;BME280;42108;49.076;19.294;2022-07-06T05:07:27;62029.09;;;-146.16;100.00
56196;BME280;42108;49.076;19.294;2022-07-06T05:09:30;62029.09;;;-146.16;100.00
56196;BME280;42108;49.076;19.294;2022-07-06T05:11:31;62029.09;;;-146.16;100.00
56196;BME280;42108;49.076;19.294;2022-07-06T05:13:33;62029.09;;;-146.16;100.00
56196;BME280;42108;49.076;19.294;2022-07-06T05:15:34;62029.09;;;-146.16;100.00
56196;BME280;42108;49.076;19.294;2022-07-06T05:17:35;62029.09;;;-146.16;100.00
56196;BME280;42108;49.076;19.294;2022-07-06T05:19:36;62029.09;;;-146.16;100.00
56196;BME280;42108;49.076;19.294;2022-07-06T05:21:38;62029.09;;;-146.16;100.00
56196;BME280;42108;49.076;19.294;2022-07-06T05:23:39;62029.09;;;-146.16;100.00
56196;BME280;42108;49.076;19.294;2022-07-06T05:25:40;62029.09;;;-146.16;100.00
56196;BME280;42108;49.076;19.294;2022-07-06T05:27:41;62029.09;;;-146.16;100.00
56196;BME280;42108;49.076;19.294;2022-07-06T05:29:42;62029.09;;;-146.16;100.00
56196;BME280;42108;49.076;19.294;2022-07-06T05:31:43;62029.09;;;-146.16;100.00
56196;BME280;42108;49.076;19.294;2022-07-06T05:33:46;62029.09;;;-146.16;100.00
56196;BME280;42108;49.076;19.294;2022-07-06T05:35:47;62029.09;;;-146.16;100.00
56196;BME280;42108;49.076;19.294;2022-07-06T05:37:48;62029.09;;;-146.16;100.00
56196;BME280;42108;49.076;19.294;2022-07-06T05:39:49;62029.09;;;-146.16;100.00
56196;BME280;42108;49.076;19.294;2022-07-06T05:41:51;62029.09;;;-146.16;100.00
56196;BME280;42108;49.076;19.294;2022-07-06T05:43:52;62029.09;;;-146.16;100.00
56196;BME280;42108;49.076;19.294;2022-07-06T05:45:53;62029.09;;;-146.16;100.00
56196;BME280;42108;49.076;19.294;2022-07-06T05:47:54;62029.09;;;-146.16;100.00
56196;BME280;42108;49.076;19.294;2022-07-06T05:50:13;62029.09;;;-146.16;100.00
56196;BME280;42108;49.076;19.294;2022-07-06T05:52:15;62029.09;;;-146.16;100.00
56196;BME280;42108;49.076;19.294;2022-07-06T05:54:16;62029.09;;;-146.16;100.00
56196;BME280;42108;49.076;19.294;2022-07-06T05:56:17;62029.09;;;-146.16;100.00
56196;BME280;42108;49.076;19.294;2022-07-06T05:58:18;62029.09;;;-146.16;100.00
56196;BME280;42108;49.076;19.294;2022-07-06T06:00:20;62029.09;;;-146.16;100.00
56196;BME280;42108;49.076;19.294;2022-07-06T06:02:22;62029.09;;;-146.16;100.00
56196;BME280;42108;49.076;19.294;2022-07-06T06:04:23;62029.09;;;-146.16;100.00
56196;BME280;42108;49.076;19.294;2022-07-06T06:06:24;62029.09;;;-146.16;100.00
56196;BME280;42108;49.076;19.294;2022-07-06T06:08:25;62029.09;;;-146.16;100.00
56196;BME280;42108;49.076;19.294;2022-07-06T06:10:26;62029.09;;;-146.16;100.00
56196;BME280;42108;49.076;19.294;2022-07-06T06:12:27;62029.09;;;-146.16;100.00
56196;BME280;42108;49.076;19.294;2022-07-06T06:14:28;62029.09;;;-146.16;100.00
56196;BME280;42108;49.076;19.294;2022-07-06T06:16:29;62029.09;;;-146.16;100.00
56196;BME280;42108;49.076;19.294;2022-07-06T06:18:30;62029.09;;;-146.16;100.00
56196;BME280;42108;49.076;19.294;2022-07-06T06:20:32;62029.09;;;-146.16;100.00
56196;BME280;42108;49.076;19.294;2022-07-06T06:22:50;62029.09;;;-146.16;100.00
56196;BME280;42108;49.076;19.294;2022-07-06T06:24:52;62029.09;;;-146.16;100.00
56196;BME280;42108;49.076;19.294;2022-07-06T06:26:53;62029.09;;;-146.16;100.00
56196;BME280;42108;49.076;19.294;2022-07-06T06:28:54;62029.09;;;-146.16;100.00
56196;BME280;42108;49.076;19.294;2022-07-06T06:30:55;95700.44;;;19.80;91.46
56196;BME280;42108;49.076;19.294;2022-07-06T06:33:13;95695.25;;;20.30;91.29
56196;BME280;42108;49.076;19.294;2022-07-06T06:35:14;95693.75;;;20.50;88.84
56196;BME280;42108;49.076;19.294;2022-07-06T06:37:15;95691.09;;;20.80;88.42
56196;BME280;42108;49.076;19.294;2022-07-06T06:39:17;95688.13;;;21.02;87.99
56196;BME280;42108;49.076;19.294;2022-07-06T06:41:18;95691.06;;;21.31;85.73
56196;BME280;42108;49.076;19.294;2022-07-06T06:43:21;95683.38;;;21.20;81.28
56196;BME280;42108;49.076;19.294;2022-07-06T06:45:22;95692.25;;;21.21;84.90
56196;BME280;42108;49.076;19.294;2022-07-06T06:47:23;95691.81;;;21.40;79.99
56196;BME280;42108;49.076;19.294;2022-07-06T06:49:24;95691.50;;;21.41;81.71
56196;BME280;42108;49.076;19.294;2022-07-06T06:51:25;95697.97;;;21.19;83.79
56196;BME280;42108;49.076;19.294;2022-07-06T06:53:26;95697.25;;;21.31;82.79
56196;BME280;42108;49.076;19.294;2022-07-06T06:55:27;95693.91;;;21.34;80.76
56196;BME280;42108;49.076;19.294;2022-07-06T06:57:28;95701.19;;;21.34;78.22
56196;BME280;42108;49.076;19.294;2022-07-06T06:59:29;95702.28;;;21.41;80.55
56196;BME280;42108;49.076;19.294;2022-07-06T07:01:31;95702.75;;;21.35;76.50
56196;BME280;42108;49.076;19.294;2022-07-06T07:03:34;95702.28;;;21.41;78.21
56196;BME280;42108;49.076;19.294;2022-07-06T07:05:35;95690.31;;;21.51;75.79
56196;BME280;42108;49.076;19.294;2022-07-06T07:07:36;95689.97;;;21.32;78.61
56196;BME280;42108;49.076;19.294;2022-07-06T07:09:37;95700.53;;;21.16;78.71
56196;BME280;42108;49.076;19.294;2022-07-06T07:11:38;95698.06;;;21.02;81.65
56196;BME280;42108;49.076;19.294;2022-07-06T07:13:40;95694.22;;;20.91;82.25
56196;BME280;42108;49.076;19.294;2022-07-06T07:15:41;95696.47;;;20.80;81.53
56196;BME280;42108;49.076;19.294;2022-07-06T07:17:42;95691.84;;;20.59;83.72
56196;BME280;42108;49.076;19.294;2022-07-06T07:19:43;95692.94;;;20.58;83.88
56196;BME280;42108;49.076;19.294;2022-07-06T07:21:44;95700.09;;;20.46;84.09
56196;BME280;42108;49.076;19.294;2022-07-06T07:23:45;95698.66;;;20.87;83.21
56196;BME280;42108;49.076;19.294;2022-07-06T07:25:46;95688.94;;;20.94;81.02
56196;BME280;42108;49.076;19.294;2022-07-06T07:27:47;95695.34;;;21.32;80.96
56196;BME280;42108;49.076;19.294;2022-07-06T07:29:48;95696.78;;;21.29;77.13
56196;BME280;42108;49.076;19.294;2022-07-06T07:31:49;95698.13;;;21.98;79.99
56196;BME280;42108;49.076;19.294;2022-07-06T07:33:51;95701.78;;;21.81;78.62
56196;BME280;42108;49.076;19.294;2022-07-06T07:35:52;95698.16;;;21.35;78.63
56196;BME280;42108;49.076;19.294;2022-07-06T07:37:53;95696.50;;;21.85;78.16
56196;BME280;42108;49.076;19.294;2022-07-06T07:39:54;95699.47;;;22.04;73.51
56196;BME280;42108;49.076;19.294;2022-07-06T07:41:55;95700.34;;;22.42;73.48
56196;BME280;42108;49.076;19.294;2022-07-06T07:43:56;95709.72;;;23.06;72.60
56196;BME280;42108;49.076;19.294;2022-07-06T07:45:57;95709.59;;;22.78;70.31
56196;BME280;42108;49.076;19.294;2022-07-06T07:47:58;95696.78;;;22.17;71.98
56196;BME280;42108;49.076;19.294;2022-07-06T07:50:01;95706.84;;;22.28;75.63
56196;BME280;42108;49.076;19.294;2022-07-06T07:52:02;95710.06;;;22.67;76.37
56196;BME280;42108;49.076;19.294;2022-07-06T07:54:04;95703.28;;;22.98;74.06
56196;BME280;42108;49.076;19.294;2022-07-06T07:56:06;95713.06;;;23.03;68.15
56196;BME280;42108;49.076;19.294;2022-07-06T07:58:08;95724.31;;;23.17;68.45
56196;BME280;42108;49.076;19.294;2022-07-06T08:00:11;95719.69;;;22.93;71.59
56196;BME280;42108;49.076;19.294;2022-07-06T08:02:12;95708.47;;;22.54;71.92
56196;BME280;42108;49.076;19.294;2022-07-06T08:04:14;95718.38;;;23.11;70.23
56196;BME280;42108;49.076;19.294;2022-07-06T08:06:16;95724.97;;;23.26;74.26
56196;BME280;42108;49.076;19.294;2022-07-06T08:08:17;95721.09;;;23.52;69.32
56196;BME280;42108;49.076;19.294;2022-07-06T08:10:19;95725.72;;;23.39;65.37
56196;BME280;42108;49.076;19.294;2022-07-06T08:12:20;95721.16;;;23.96;65.16
56196;BME280;42108;49.076;19.294;2022-07-06T08:14:21;95718.00;;;24.38;68.48
56196;BME280;42108;49.076;19.294;2022-07-06T08:16:22;95712.34;;;24.91;67.68
56196;BME280;42108;49.076;19.294;2022-07-06T08:18:23;95727.88;;;25.10;63.74
56196;BME280;42108;49.076;19.294;2022-07-06T08:20:24;95729.00;;;25.09;63.47
56196;BME280;42108;49.076;19.294;2022-07-06T08:22:25;95731.91;;;24.84;65.63
56196;BME280;42108;49.076;19.294;2022-07-06T08:24:27;95731.00;;;24.16;63.90
56196;BME280;42108;49.076;19.294;2022-07-06T08:26:28;95750.34;;;23.62;65.45
56196;BME280;42108;49.076;19.294;2022-07-06T08:28:29;95744.69;;;23.14;67.76
56196;BME280;42108;49.076;19.294;2022-07-06T08:30:30;95749.19;;;22.86;65.50
56196;BME280;42108;49.076;19.294;2022-07-06T08:32:39;95734.88;;;23.34;65.69
56196;BME280;42108;49.076;19.294;2022-07-06T08:34:40;95735.25;;;23.61;63.46
56196;BME280;42108;49.076;19.294;2022-07-06T08:36:44;95724.88;;;23.63;62.08
56196;BME280;42108;49.076;19.294;2022-07-06T08:38:45;95728.09;;;24.25;61.49
56196;BME280;42108;49.076;19.294;2022-07-06T08:40:48;95729.88;;;23.89;62.38
56196;BME280;42108;49.076;19.294;2022-07-06T08:42:53;95709.31;;;23.32;67.50
56196;BME280;42108;49.076;19.294;2022-07-06T08:44:55;95723.84;;;23.68;62.42
56196;BME280;42108;49.076;19.294;2022-07-06T08:47:00;95727.00;;;23.70;62.87
56196;BME280;42108;49.076;19.294;2022-07-06T08:49:06;95730.75;;;23.53;63.23
56196;BME280;42108;49.076;19.294;2022-07-06T08:51:08;95719.66;;;23.42;62.05
56196;BME280;42108;49.076;19.294;2022-07-06T08:53:09;95725.16;;;23.46;64.04
56196;BME280;42108;49.076;19.294;2022-07-06T08:55:10;95717.50;;;23.48;62.60
56196;BME280;42108;49.076;19.294;2022-07-06T08:57:12;95715.66;;;23.64;60.72
56196;BME280;42108;49.076;19.294;2022-07-06T08:59:14;95715.84;;;23.71;62.50
56196;BME280;42108;49.076;19.294;2022-07-06T09:01:16;95724.69;;;23.56;64.80
56196;BME280;42108;49.076;19.294;2022-07-06T09:03:17;95718.06;;;23.41;62.79
56196;BME280;42108;49.076;19.294;2022-07-06T09:05:21;95725.91;;;23.18;63.20
56196;BME280;42108;49.076;19.294;2022-07-06T09:07:26;95720.66;;;23.50;63.82
56196;BME280;42108;49.076;19.294;2022-07-06T09:09:29;95710.41;;;23.43;62.09
56196;BME280;42108;49.076;19.294;2022-07-06T09:11:34;95719.47;;;23.63;59.42
56196;BME280;42108;49.076;19.294;2022-07-06T09:13:36;95717.75;;;23.83;60.65
56196;BME280;42108;49.076;19.294;2022-07-06T09:15:37;95727.66;;;23.79;62.21
56196;BME280;42108;49.076;19.294;2022-07-06T09:17:42;95725.88;;;23.30;58.97
56196;BME280;42108;49.076;19.294;2022-07-06T09:19:45;95718.59;;;23.19;59.55
56196;BME280;42108;49.076;19.294;2022-07-06T09:21:46;95724.19;;;23.26;62.54
56196;BME280;42108;49.076;19.294;2022-07-06T09:23:47;95719.72;;;23.05;60.35
56196;BME280;42108;49.076;19.294;2022-07-06T09:25:48;95717.19;;;23.25;59.81
56196;BME280;42108;49.076;19.294;2022-07-06T09:27:50;95728.72;;;22.97;62.15
56196;BME280;42108;49.076;19.294;2022-07-06T09:29:59;95726.97;;;22.31;63.13
56196;BME280;42108;49.076;19.294;2022-07-06T09:32:03;95730.16;;;22.12;63.07
56196;BME280;42108;49.076;19.294;2022-07-06T09:34:07;95731.75;;;21.80;65.72
56196;BME280;42108;49.076;19.294;2022-07-06T09:36:10;95730.78;;;21.63;65.63
56196;BME280;42108;49.076;19.294;2022-07-06T09:38:13;95739.78;;;21.67;66.06
56196;BME280;42108;49.076;19.294;2022-07-06T09:40:18;95733.94;;;21.65;65.80
56196;BME280;42108;49.076;19.294;2022-07-06T09:42:25;95729.31;;;21.87;63.72
56196;BME280;42108;49.076;19.294;2022-07-06T09:44:32;95735.13;;;21.77;63.56
56196;BME280;42108;49.076;19.294;2022-07-06T09:46:46;95723.22;;;21.57;63.84
56196;BME280;42108;49.076;19.294;2022-07-06T09:48:47;95733.94;;;21.65;64.25
56196;BME280;42108;49.076;19.294;2022-07-06T09:52:55;95725.88;;;21.99;66.44
56196;BME280;42108;49.076;19.294;2022-07-06T09:54:56;95727.13;;;22.14;64.63
56196;BME280;42108;49.076;19.294;2022-07-06T09:56:57;95722.72;;;22.42;64.13
56196;BME280;42108;49.076;19.294;2022-07-06T09:58:58;95727.03;;;23.05;63.83
56196;BME280;42108;49.076;19.294;2022-07-06T10:00:59;95729.38;;;23.19;58.51
56196;BME280;42108;49.076;19.294;2022-07-06T10:03:01;95730.97;;;23.07;63.26
56196;BME280;42108;49.076;19.294;2022-07-06T10:05:03;95739.84;;;22.96;59.88
56196;BME280;42108;49.076;19.294;2022-07-06T10:07:06;95723.66;;;22.71;60.56
56196;BME280;42108;49.076;19.294;2022-07-06T10:09:09;95737.94;;;22.71;62.22
56196;BME280;42108;49.076;19.294;2022-07-06T10:11:11;95725.66;;;22.37;61.72
56196;BME280;42108;49.076;19.294;2022-07-06T10:13:19;95725.66;;;22.62;61.87
56196;BME280;42108;49.076;19.294;2022-07-06T10:15:25;95732.59;;;22.38;64.41
56196;BME280;42108;49.076;19.294;2022-07-06T10:17:26;95745.28;;;22.25;66.23
56196;BME280;42108;49.076;19.294;2022-07-06T10:19:29;95744.88;;;22.15;67.67
56196;BME280;42108;49.076;19.294;2022-07-06T10:21:31;95749.44;;;21.69;67.21
56196;BME280;42108;49.076;19.294;2022-07-06T10:23:34;95755.03;;;21.84;67.98